Flight Track Log - Related Links

Times and Time Zones

All times are in EDT time to prevent confusion due to time zone crossing. See the N30XL flight status page for this flight to view local times or setup timezone preferences in your user account.

Time Position Orientation Groundspeed Altitude Reporting Facility
EDT Latitude Longitude Course Direction KTS MPH feet Rate Location/Type
02:32PM 32.8000 -96.7833 103° East 235 270 3,200  Level Dallas / Fort Worth TRACON
02:33PM 32.7833 -96.7000 103° East 270 311 5,600 2,150 Climbing Dallas / Fort Worth TRACON
02:34PM 32.8500 -96.6833 12° North 289 333 7,500 2,150 Climbing Dallas / Fort Worth TRACON
02:35PM 32.9333 -96.7000 350° North 301 346 9,900 2,344 Climbing Dallas / Fort Worth TRACON
02:38PM 33.1139 -96.8481 326° Northwest 320 368 15,900 2,325 Climbing Fort Worth Center
02:39PM 33.1933 -96.8897 336° Northwest 309 356 18,000 1,750 Climbing Fort Worth Center
02:40PM 33.2750 -96.9067 350° North 322 371 19,400 1,000 Climbing Fort Worth Center
02:41PM 33.3753 -96.9308 349° North 352 405 20,000 300 Climbing Fort Worth Center
02:42PM 33.4942 -96.9578 349° North 383 441 20,000  Level Fort Worth Center
02:43PM 33.5967 -96.9819 349° North 405 466 20,000  Level Fort Worth Center
02:44PM 33.7261 -97.0114 349° North 418 481 20,000  Level Fort Worth Center
02:45PM 33.8200 -97.0308 350° North 428 493 20,000  Level Fort Worth Center
02:46PM 33.9453 -97.0681 346° North 428 493 20,000  Level Fort Worth Center
02:47PM 34.0644 -97.0925 350° North 428 493 20,000  Level Fort Worth Center
02:48PM 34.1792 -97.1197 349° North 428 493 20,000  Level Fort Worth Center
02:49PM 34.2961 -97.1469 349° North 428 493 20,000  Level Fort Worth Center
02:50PM 34.4131 -97.1744 349° North 428 493 20,000 -400 Level Fort Worth Center
02:51PM 34.5278 -97.2017 349° North 428 493 19,200 -1,150 Descending Fort Worth Center
02:52PM 34.6406 -97.2267 350° North 423 487 17,700 -1,500 Descending Fort Worth Center
02:53PM 34.7492 -97.2542 348° North 411 473 16,200 -1,585 Descending Fort Worth Center
02:54PM 34.8431 -97.2769 349° North 391 450 14,900 -1,570 Descending Fort Worth Center
02:55PM 34.9286 -97.3225 336° Northwest 313 360 13,400 -1,475 Descending Fort Worth Center
02:56PM 35.0017 -97.3731 330° Northwest 287 330 11,900 -1,513 Descending Fort Worth Center
02:57PM 35.0706 -97.4161 333° Northwest 303 349 10,500 -1,513 Descending Fort Worth Center
02:58PM 35.1456 -97.4592 335° Northwest 308 354 9,000 -1,525 Descending Fort Worth Center
02:59PM 35.2331 -97.4922 343° North 301 346 7,400 -1,475 Descending Fort Worth Center
03:00PM 35.3122 -97.5203 344° North 297 342 6,000 -1,180 Descending Fort Worth Center
03:01PM 35.3875 -97.5486 343° North 288 331 5,000 -492 Descending Fort Worth Center
03:02PM 35.4561 -97.5692 346° North 249 287 5,000 -50 Level Fort Worth Center
03:03PM 35.5292 -97.5767 355° North 232 267 4,900 -446 Descending Fort Worth Center
03:04PM 35.5939 -97.5872 352° North 229 264 4,100 -1,082 Descending Fort Worth Center
03:05PM 35.6042 -97.6306 286° West 121 139 2,700 -984 Descending Fort Worth Center
03:06PM 35.5792 -97.6483 210° Southwest 118 136 2,100 -550 Descending Fort Worth Center
03:07PM 35.5542 -97.6586 198° South 79 91 1,500 -514 Descending Fort Worth Center

Login

Don't have an account? Register now (free) for customized features, flight alerts, and more!